National Weather Service
For a better view on National Weather Service, Update Your Browser.
Current Weather
  • 78o F
  • Rainfall Accumulated 0 mm
  • Wind Speed 3 knots
  • Wind Direction SE
  • Humidity 93%
  • Pressure 1015.3 millibars
Today's Forecast As of 27 Jun 2022 2:40 AM
Partly Cloudy
Night
Partly Cloudy
Min 76o F | Max 88o F
05:51 19:06
  • Light and variable.

  • Slight with a wave height of 1 to 3 feet.

Aviation Forecast

Grand Cayman: Terminal Aerodrome Forecast

Last updated at 27 Jun 2022 12:14 AM

TAF MWCR 270300Z 2700/2724 CNL

Grand Cayman: Metar Reports

Last updated at 26 Jun 2022 11:00 PM

Jun 26, 2022 - 11:00 PM EDT / 2022.06.27 0300 UTC
Wind: Calm:0
Visibility: greater than 7 mile(s):0
Sky conditions: mostly clear
Temperature: 82 F (28 C)
Dew Point: 77 F (25 C)
Relative Humidity: 83%
Pressure (altimeter): 30.00 in. Hg (1016 hPa)
ob: MWCR 270300Z 00000KT 9999 FEW020 28/25 Q1016

Cayman Brac: Terminal Aerodrome Forecast

Last updated at 26 Jun 2022 06:57 PM

TAF TAF MWCB 261700Z 2618/2718 08006KT 9999 FEW018 PROB30
TEMPO 2621/2702 08006KT 9000 SHRA SCT016CB

Cayman Brac: Metar Reports

Last updated at 26 Jun 2022 08:00 PM

Jun 26, 2022 - 08:00 PM EDT / 2022.06.27 0000 UTC
Wind: Calm:0
Visibility: greater than 7 mile(s):0
Sky conditions: mostly clear
Temperature: 82 F (28 C)
Dew Point: 77 F (25 C)
Relative Humidity: 83%
Pressure (altimeter): 30.00 in. Hg (1016 hPa)
ob: MWCB 270000Z 00000KT 9999 FEW016 28/25 Q1016

Turbulence

The weather radar is not operational at this time. Sorry for the inconvenience.

Wind SHEAR

The weather radar is not operational at this time. Sorry for the inconvenience.